sensor_id;sensor_type;location;lat;lon;timestamp;P1;durP1;ratioP1;P2;durP2;ratioP2
23565;SDS011;22140;48.988;8.544;2022-08-20T00:04:09;4.78;;;1.40;;
23565;SDS011;22140;48.988;8.544;2022-08-20T00:09:11;5.43;;;1.30;;
23565;SDS011;22140;48.988;8.544;2022-08-20T00:14:12;5.90;;;1.30;;
23565;SDS011;22140;48.988;8.544;2022-08-20T00:19:14;3.53;;;1.10;;
23565;SDS011;22140;48.988;8.544;2022-08-20T00:24:15;6.20;;;1.40;;
23565;SDS011;22140;48.988;8.544;2022-08-20T00:29:16;4.43;;;1.20;;
23565;SDS011;22140;48.988;8.544;2022-08-20T00:34:20;4.45;;;1.20;;
23565;SDS011;22140;48.988;8.544;2022-08-20T00:39:21;5.13;;;1.63;;
23565;SDS011;22140;48.988;8.544;2022-08-20T00:44:23;4.67;;;1.43;;
23565;SDS011;22140;48.988;8.544;2022-08-20T00:49:25;4.30;;;1.30;;
23565;SDS011;22140;48.988;8.544;2022-08-20T00:54:37;4.82;;;1.40;;
23565;SDS011;22140;48.988;8.544;2022-08-20T00:59:39;4.20;;;1.40;;
23565;SDS011;22140;48.988;8.544;2022-08-20T01:04:42;6.07;;;1.40;;
23565;SDS011;22140;48.988;8.544;2022-08-20T01:09:54;5.35;;;1.70;;
23565;SDS011;22140;48.988;8.544;2022-08-20T01:15:00;5.00;;;1.63;;
23565;SDS011;22140;48.988;8.544;2022-08-20T01:20:05;4.60;;;1.63;;
23565;SDS011;22140;48.988;8.544;2022-08-20T01:25:09;5.07;;;1.60;;
23565;SDS011;22140;48.988;8.544;2022-08-20T01:30:12;5.03;;;1.63;;
23565;SDS011;22140;48.988;8.544;2022-08-20T01:35:18;4.47;;;1.53;;
23565;SDS011;22140;48.988;8.544;2022-08-20T01:40:26;5.27;;;1.57;;
23565;SDS011;22140;48.988;8.544;2022-08-20T01:45:29;5.30;;;1.80;;
23565;SDS011;22140;48.988;8.544;2022-08-20T01:50:31;4.60;;;1.70;;
23565;SDS011;22140;48.988;8.544;2022-08-20T01:55:35;5.63;;;1.70;;
23565;SDS011;22140;48.988;8.544;2022-08-20T02:00:37;5.60;;;1.90;;
23565;SDS011;22140;48.988;8.544;2022-08-20T02:05:39;5.00;;;1.60;;
23565;SDS011;22140;48.988;8.544;2022-08-20T02:10:40;5.60;;;1.90;;
23565;SDS011;22140;48.988;8.544;2022-08-20T02:15:42;5.07;;;1.77;;
23565;SDS011;22140;48.988;8.544;2022-08-20T02:20:43;4.90;;;1.70;;
23565;SDS011;22140;48.988;8.544;2022-08-20T02:25:46;7.80;;;2.53;;
23565;SDS011;22140;48.988;8.544;2022-08-20T02:30:51;6.23;;;1.80;;
23565;SDS011;22140;48.988;8.544;2022-08-20T02:35:52;4.75;;;1.73;;
23565;SDS011;22140;48.988;8.544;2022-08-20T02:40:56;6.28;;;2.20;;
23565;SDS011;22140;48.988;8.544;2022-08-20T02:45:57;5.60;;;2.03;;
23565;SDS011;22140;48.988;8.544;2022-08-20T02:51:00;6.20;;;2.10;;
23565;SDS011;22140;48.988;8.544;2022-08-20T02:56:02;5.70;;;2.05;;
23565;SDS011;22140;48.988;8.544;2022-08-20T03:01:05;5.70;;;2.17;;
23565;SDS011;22140;48.988;8.544;2022-08-20T03:06:06;6.20;;;2.20;;
23565;SDS011;22140;48.988;8.544;2022-08-20T03:11:08;5.85;;;2.15;;
23565;SDS011;22140;48.988;8.544;2022-08-20T03:16:09;6.37;;;2.40;;
23565;SDS011;22140;48.988;8.544;2022-08-20T03:21:11;6.90;;;2.23;;
23565;SDS011;22140;48.988;8.544;2022-08-20T03:26:15;6.13;;;2.30;;
23565;SDS011;22140;48.988;8.544;2022-08-20T03:31:17;7.22;;;2.42;;
23565;SDS011;22140;48.988;8.544;2022-08-20T03:36:19;7.17;;;2.47;;
23565;SDS011;22140;48.988;8.544;2022-08-20T03:41:27;6.25;;;2.40;;
23565;SDS011;22140;48.988;8.544;2022-08-20T03:46:29;6.95;;;2.42;;
23565;SDS011;22140;48.988;8.544;2022-08-20T03:51:30;6.73;;;2.50;;
23565;SDS011;22140;48.988;8.544;2022-08-20T03:56:52;6.07;;;2.70;;
23565;SDS011;22140;48.988;8.544;2022-08-20T04:01:53;6.40;;;2.67;;
23565;SDS011;22140;48.988;8.544;2022-08-20T04:06:55;7.63;;;2.40;;
23565;SDS011;22140;48.988;8.544;2022-08-20T04:11:56;6.43;;;2.53;;
23565;SDS011;22140;48.988;8.544;2022-08-20T04:17:03;6.93;;;2.90;;
23565;SDS011;22140;48.988;8.544;2022-08-20T04:22:05;8.63;;;2.78;;
23565;SDS011;22140;48.988;8.544;2022-08-20T04:27:08;6.90;;;2.60;;
23565;SDS011;22140;48.988;8.544;2022-08-20T04:32:10;6.50;;;2.70;;
23565;SDS011;22140;48.988;8.544;2022-08-20T04:37:12;6.82;;;2.65;;
23565;SDS011;22140;48.988;8.544;2022-08-20T04:42:17;8.73;;;2.53;;
23565;SDS011;22140;48.988;8.544;2022-08-20T04:47:18;7.35;;;2.80;;
23565;SDS011;22140;48.988;8.544;2022-08-20T04:52:34;5.82;;;2.40;;
23565;SDS011;22140;48.988;8.544;2022-08-20T04:57:37;5.80;;;2.27;;
23565;SDS011;22140;48.988;8.544;2022-08-20T05:02:38;6.57;;;2.80;;
23565;SDS011;22140;48.988;8.544;2022-08-20T05:07:41;6.40;;;2.70;;
23565;SDS011;22140;48.988;8.544;2022-08-20T05:12:43;7.43;;;2.90;;
23565;SDS011;22140;48.988;8.544;2022-08-20T05:17:58;8.00;;;2.97;;
23565;SDS011;22140;48.988;8.544;2022-08-20T05:23:01;7.35;;;2.72;;
23565;SDS011;22140;48.988;8.544;2022-08-20T05:28:06;6.15;;;2.55;;
23565;SDS011;22140;48.988;8.544;2022-08-20T05:33:10;6.70;;;2.80;;
23565;SDS011;22140;48.988;8.544;2022-08-20T05:38:13;6.53;;;2.80;;
23565;SDS011;22140;48.988;8.544;2022-08-20T05:43:15;7.10;;;2.67;;
23565;SDS011;22140;48.988;8.544;2022-08-20T05:48:17;6.43;;;2.67;;
23565;SDS011;22140;48.988;8.544;2022-08-20T05:53:19;6.83;;;3.20;;
23565;SDS011;22140;48.988;8.544;2022-08-20T05:58:23;10.77;;;3.25;;
23565;SDS011;22140;48.988;8.544;2022-08-20T06:03:25;7.18;;;3.03;;
23565;SDS011;22140;48.988;8.544;2022-08-20T06:08:45;9.33;;;3.00;;
23565;SDS011;22140;48.988;8.544;2022-08-20T06:13:46;6.72;;;2.58;;
23565;SDS011;22140;48.988;8.544;2022-08-20T06:18:47;8.00;;;2.80;;
23565;SDS011;22140;48.988;8.544;2022-08-20T06:23:49;8.27;;;3.17;;
23565;SDS011;22140;48.988;8.544;2022-08-20T06:29:01;7.10;;;2.80;;
23565;SDS011;22140;48.988;8.544;2022-08-20T06:34:02;6.80;;;2.80;;
23565;SDS011;22140;48.988;8.544;2022-08-20T06:39:04;6.60;;;2.90;;
23565;SDS011;22140;48.988;8.544;2022-08-20T06:44:06;6.77;;;2.90;;
23565;SDS011;22140;48.988;8.544;2022-08-20T06:49:10;5.97;;;2.47;;
23565;SDS011;22140;48.988;8.544;2022-08-20T06:54:11;7.18;;;2.95;;
23565;SDS011;22140;48.988;8.544;2022-08-20T06:59:13;5.97;;;2.17;;
23565;SDS011;22140;48.988;8.544;2022-08-20T07:04:14;6.60;;;2.65;;
23565;SDS011;22140;48.988;8.544;2022-08-20T07:09:17;7.30;;;2.90;;
23565;SDS011;22140;48.988;8.544;2022-08-20T07:14:18;6.57;;;2.80;;
23565;SDS011;22140;48.988;8.544;2022-08-20T07:19:20;6.88;;;2.65;;
23565;SDS011;22140;48.988;8.544;2022-08-20T07:24:21;6.88;;;2.70;;
23565;SDS011;22140;48.988;8.544;2022-08-20T07:29:22;10.97;;;2.90;;
23565;SDS011;22140;48.988;8.544;2022-08-20T07:34:44;6.03;;;2.77;;
23565;SDS011;22140;48.988;8.544;2022-08-20T07:39:48;6.25;;;2.65;;
23565;SDS011;22140;48.988;8.544;2022-08-20T07:44:50;8.07;;;2.55;;
23565;SDS011;22140;48.988;8.544;2022-08-20T07:49:52;7.63;;;2.50;;
23565;SDS011;22140;48.988;8.544;2022-08-20T07:54:53;6.47;;;2.47;;
23565;SDS011;22140;48.988;8.544;2022-08-20T07:59:55;5.75;;;2.40;;
23565;SDS011;22140;48.988;8.544;2022-08-20T08:05:00;7.10;;;2.27;;
23565;SDS011;22140;48.988;8.544;2022-08-20T08:10:02;6.80;;;2.20;;
23565;SDS011;22140;48.988;8.544;2022-08-20T08:15:05;5.70;;;1.90;;
23565;SDS011;22140;48.988;8.544;2022-08-20T08:20:08;6.27;;;2.00;;
23565;SDS011;22140;48.988;8.544;2022-08-20T08:25:10;7.33;;;1.93;;
23565;SDS011;22140;48.988;8.544;2022-08-20T08:30:13;6.00;;;2.17;;
23565;SDS011;22140;48.988;8.544;2022-08-20T08:35:15;5.88;;;2.08;;
23565;SDS011;22140;48.988;8.544;2022-08-20T08:40:16;8.37;;;2.20;;
23565;SDS011;22140;48.988;8.544;2022-08-20T08:45:18;6.53;;;1.95;;
23565;SDS011;22140;48.988;8.544;2022-08-20T08:50:23;5.75;;;2.20;;
23565;SDS011;22140;48.988;8.544;2022-08-20T08:55:45;8.80;;;2.30;;
23565;SDS011;22140;48.988;8.544;2022-08-20T09:00:46;5.97;;;1.80;;
23565;SDS011;22140;48.988;8.544;2022-08-20T09:05:58;6.45;;;2.17;;
23565;SDS011;22140;48.988;8.544;2022-08-20T09:11:04;5.50;;;2.10;;
23565;SDS011;22140;48.988;8.544;2022-08-20T09:16:06;6.57;;;2.10;;
23565;SDS011;22140;48.988;8.544;2022-08-20T09:21:07;6.90;;;2.03;;
23565;SDS011;22140;48.988;8.544;2022-08-20T09:26:09;7.18;;;2.60;;
23565;SDS011;22140;48.988;8.544;2022-08-20T09:31:11;6.17;;;1.70;;
23565;SDS011;22140;48.988;8.544;2022-08-20T09:36:12;5.45;;;1.70;;
23565;SDS011;22140;48.988;8.544;2022-08-20T09:41:32;5.95;;;1.80;;
23565;SDS011;22140;48.988;8.544;2022-08-20T09:46:34;6.90;;;2.30;;
23565;SDS011;22140;48.988;8.544;2022-08-20T09:51:36;6.10;;;1.77;;
23565;SDS011;22140;48.988;8.544;2022-08-20T09:56:38;6.88;;;1.70;;
23565;SDS011;22140;48.988;8.544;2022-08-20T10:01:40;7.23;;;1.87;;
23565;SDS011;22140;48.988;8.544;2022-08-20T10:06:41;6.30;;;1.70;;
23565;SDS011;22140;48.988;8.544;2022-08-20T10:11:43;4.72;;;1.60;;
23565;SDS011;22140;48.988;8.544;2022-08-20T10:16:44;4.68;;;1.60;;
23565;SDS011;22140;48.988;8.544;2022-08-20T10:21:45;3.83;;;1.20;;
23565;SDS011;22140;48.988;8.544;2022-08-20T10:26:47;4.70;;;1.42;;
23565;SDS011;22140;48.988;8.544;2022-08-20T10:31:48;5.90;;;1.30;;
23565;SDS011;22140;48.988;8.544;2022-08-20T10:36:49;4.43;;;1.50;;
23565;SDS011;22140;48.988;8.544;2022-08-20T10:41:51;4.97;;;1.40;;
23565;SDS011;22140;48.988;8.544;2022-08-20T10:46:53;4.30;;;1.30;;
23565;SDS011;22140;48.988;8.544;2022-08-20T10:51:57;5.20;;;1.40;;
23565;SDS011;22140;48.988;8.544;2022-08-20T10:57:02;5.13;;;1.60;;
23565;SDS011;22140;48.988;8.544;2022-08-20T11:02:03;4.03;;;1.40;;
23565;SDS011;22140;48.988;8.544;2022-08-20T11:13:02;6.00;;;1.33;;
23565;SDS011;22140;48.988;8.544;2022-08-20T11:18:04;4.95;;;1.60;;
23565;SDS011;22140;48.988;8.544;2022-08-20T11:23:05;4.50;;;1.70;;
23565;SDS011;22140;48.988;8.544;2022-08-20T11:28:06;7.20;;;1.93;;
23565;SDS011;22140;48.988;8.544;2022-08-20T11:33:08;4.70;;;1.60;;
23565;SDS011;22140;48.988;8.544;2022-08-20T11:38:12;5.03;;;1.85;;
23565;SDS011;22140;48.988;8.544;2022-08-20T11:43:14;5.13;;;1.83;;
23565;SDS011;22140;48.988;8.544;2022-08-20T11:48:17;4.60;;;1.67;;
23565;SDS011;22140;48.988;8.544;2022-08-20T11:53:19;4.95;;;1.65;;
23565;SDS011;22140;48.988;8.544;2022-08-20T11:58:22;4.45;;;1.70;;
23565;SDS011;22140;48.988;8.544;2022-08-20T12:03:23;3.90;;;1.30;;
23565;SDS011;22140;48.988;8.544;2022-08-20T12:08:27;4.40;;;1.23;;
23565;SDS011;22140;48.988;8.544;2022-08-20T12:13:30;4.10;;;1.30;;
23565;SDS011;22140;48.988;8.544;2022-08-20T12:18:48;3.57;;;1.20;;
23565;SDS011;22140;48.988;8.544;2022-08-20T12:23:50;5.30;;;1.20;;
23565;SDS011;22140;48.988;8.544;2022-08-20T12:28:51;2.47;;;0.80;;
23565;SDS011;22140;48.988;8.544;2022-08-20T12:33:53;7.47;;;1.10;;
23565;SDS011;22140;48.988;8.544;2022-08-20T12:38:55;4.17;;;1.20;;
23565;SDS011;22140;48.988;8.544;2022-08-20T12:43:56;3.88;;;1.10;;
23565;SDS011;22140;48.988;8.544;2022-08-20T12:48:57;2.25;;;0.80;;
23565;SDS011;22140;48.988;8.544;2022-08-20T12:53:59;3.47;;;0.97;;
23565;SDS011;22140;48.988;8.544;2022-08-20T12:59:00;3.13;;;0.90;;
23565;SDS011;22140;48.988;8.544;2022-08-20T13:04:01;7.88;;;1.00;;
23565;SDS011;22140;48.988;8.544;2022-08-20T13:09:03;2.60;;;0.83;;
23565;SDS011;22140;48.988;8.544;2022-08-20T13:14:04;3.50;;;0.90;;
23565;SDS011;22140;48.988;8.544;2022-08-20T13:19:05;2.33;;;0.80;;
23565;SDS011;22140;48.988;8.544;2022-08-20T13:24:07;3.57;;;1.03;;
23565;SDS011;22140;48.988;8.544;2022-08-20T13:29:09;3.63;;;0.80;;
23565;SDS011;22140;48.988;8.544;2022-08-20T13:34:11;2.72;;;0.82;;
23565;SDS011;22140;48.988;8.544;2022-08-20T13:39:12;4.47;;;1.42;;
23565;SDS011;22140;48.988;8.544;2022-08-20T13:44:14;3.13;;;0.97;;
23565;SDS011;22140;48.988;8.544;2022-08-20T13:49:16;3.50;;;1.05;;
23565;SDS011;22140;48.988;8.544;2022-08-20T13:54:17;3.40;;;1.00;;
23565;SDS011;22140;48.988;8.544;2022-08-20T13:59:18;3.73;;;1.30;;
23565;SDS011;22140;48.988;8.544;2022-08-20T14:04:21;3.92;;;1.00;;
23565;SDS011;22140;48.988;8.544;2022-08-20T14:09:22;3.70;;;1.50;;
23565;SDS011;22140;48.988;8.544;2022-08-20T14:14:23;3.87;;;1.07;;
23565;SDS011;22140;48.988;8.544;2022-08-20T14:19:25;4.00;;;1.30;;
23565;SDS011;22140;48.988;8.544;2022-08-20T14:24:26;5.18;;;1.20;;
23565;SDS011;22140;48.988;8.544;2022-08-20T14:29:27;4.15;;;1.40;;
23565;SDS011;22140;48.988;8.544;2022-08-20T14:34:36;4.97;;;1.67;;
23565;SDS011;22140;48.988;8.544;2022-08-20T14:39:38;6.03;;;1.40;;
23565;SDS011;22140;48.988;8.544;2022-08-20T14:44:39;4.22;;;1.30;;
23565;SDS011;22140;48.988;8.544;2022-08-20T14:49:41;5.43;;;1.67;;
23565;SDS011;22140;48.988;8.544;2022-08-20T14:54:43;4.88;;;1.40;;
23565;SDS011;22140;48.988;8.544;2022-08-20T14:59:47;5.10;;;1.40;;
23565;SDS011;22140;48.988;8.544;2022-08-20T15:04:48;5.20;;;1.50;;
23565;SDS011;22140;48.988;8.544;2022-08-20T15:09:56;4.83;;;1.30;;
23565;SDS011;22140;48.988;8.544;2022-08-20T15:14:57;5.97;;;1.30;;
23565;SDS011;22140;48.988;8.544;2022-08-20T15:20:16;5.15;;;1.20;;
23565;SDS011;22140;48.988;8.544;2022-08-20T15:25:21;5.60;;;1.33;;
23565;SDS011;22140;48.988;8.544;2022-08-20T15:30:23;5.97;;;1.65;;
23565;SDS011;22140;48.988;8.544;2022-08-20T15:35:25;4.57;;;1.30;;
23565;SDS011;22140;48.988;8.544;2022-08-20T15:40:29;5.93;;;1.67;;
23565;SDS011;22140;48.988;8.544;2022-08-20T15:45:30;7.07;;;1.70;;
23565;SDS011;22140;48.988;8.544;2022-08-20T15:55:34;5.93;;;1.47;;
23565;SDS011;22140;48.988;8.544;2022-08-20T16:00:46;6.70;;;1.70;;
23565;SDS011;22140;48.988;8.544;2022-08-20T16:05:53;7.95;;;1.88;;
23565;SDS011;22140;48.988;8.544;2022-08-20T16:16:24;11.70;;;1.70;;
23565;SDS011;22140;48.988;8.544;2022-08-20T16:21:35;5.50;;;1.70;;
23565;SDS011;22140;48.988;8.544;2022-08-20T16:26:45;7.82;;;1.83;;
23565;SDS011;22140;48.988;8.544;2022-08-20T16:31:53;5.50;;;1.70;;
23565;SDS011;22140;48.988;8.544;2022-08-20T16:37:04;5.95;;;1.80;;
23565;SDS011;22140;48.988;8.544;2022-08-20T16:42:06;5.15;;;1.60;;
23565;SDS011;22140;48.988;8.544;2022-08-20T16:47:16;5.83;;;1.80;;
23565;SDS011;22140;48.988;8.544;2022-08-20T16:52:18;6.80;;;1.50;;
23565;SDS011;22140;48.988;8.544;2022-08-20T16:57:19;5.53;;;1.50;;
23565;SDS011;22140;48.988;8.544;2022-08-20T17:02:21;4.90;;;1.70;;
23565;SDS011;22140;48.988;8.544;2022-08-20T17:07:23;5.50;;;1.70;;
23565;SDS011;22140;48.988;8.544;2022-08-20T17:12:33;5.15;;;1.70;;
23565;SDS011;22140;48.988;8.544;2022-08-20T17:17:35;5.90;;;1.70;;
23565;SDS011;22140;48.988;8.544;2022-08-20T17:22:45;6.17;;;1.50;;
23565;SDS011;22140;48.988;8.544;2022-08-20T17:27:46;6.47;;;1.45;;
23565;SDS011;22140;48.988;8.544;2022-08-20T17:37:59;5.13;;;1.50;;
23565;SDS011;22140;48.988;8.544;2022-08-20T17:43:04;4.90;;;1.30;;
23565;SDS011;22140;48.988;8.544;2022-08-20T17:48:07;6.82;;;1.60;;
23565;SDS011;22140;48.988;8.544;2022-08-20T17:53:19;5.60;;;1.60;;
23565;SDS011;22140;48.988;8.544;2022-08-20T17:58:25;5.23;;;1.50;;
23565;SDS011;22140;48.988;8.544;2022-08-20T18:03:30;4.55;;;1.38;;
23565;SDS011;22140;48.988;8.544;2022-08-20T18:08:42;4.93;;;1.40;;
23565;SDS011;22140;48.988;8.544;2022-08-20T18:13:59;6.87;;;1.40;;
23565;SDS011;22140;48.988;8.544;2022-08-20T18:19:10;4.65;;;1.30;;
23565;SDS011;22140;48.988;8.544;2022-08-20T18:24:17;7.07;;;1.60;;
23565;SDS011;22140;48.988;8.544;2022-08-20T18:29:25;6.00;;;1.40;;
23565;SDS011;22140;48.988;8.544;2022-08-20T18:39:31;7.00;;;1.92;;
23565;SDS011;22140;48.988;8.544;2022-08-20T18:44:34;5.33;;;1.50;;
23565;SDS011;22140;48.988;8.544;2022-08-20T18:49:38;5.10;;;1.40;;
23565;SDS011;22140;48.988;8.544;2022-08-20T18:54:41;5.60;;;1.40;;
23565;SDS011;22140;48.988;8.544;2022-08-20T18:59:44;6.22;;;1.50;;
23565;SDS011;22140;48.988;8.544;2022-08-20T19:04:47;8.00;;;2.30;;
23565;SDS011;22140;48.988;8.544;2022-08-20T19:15:29;7.65;;;1.70;;
23565;SDS011;22140;48.988;8.544;2022-08-20T19:20:33;5.63;;;1.57;;
23565;SDS011;22140;48.988;8.544;2022-08-20T19:25:36;5.72;;;1.70;;
23565;SDS011;22140;48.988;8.544;2022-08-20T19:30:39;6.07;;;1.77;;
23565;SDS011;22140;48.988;8.544;2022-08-20T19:35:40;6.10;;;1.53;;
23565;SDS011;22140;48.988;8.544;2022-08-20T19:40:42;5.43;;;1.43;;
23565;SDS011;22140;48.988;8.544;2022-08-20T19:45:48;6.28;;;1.60;;
23565;SDS011;22140;48.988;8.544;2022-08-20T19:55:59;7.03;;;1.40;;
23565;SDS011;22140;48.988;8.544;2022-08-20T20:01:01;5.55;;;1.50;;
23565;SDS011;22140;48.988;8.544;2022-08-20T20:06:13;5.03;;;1.42;;
23565;SDS011;22140;48.988;8.544;2022-08-20T20:11:18;5.60;;;1.37;;
23565;SDS011;22140;48.988;8.544;2022-08-20T20:16:20;5.78;;;1.40;;
23565;SDS011;22140;48.988;8.544;2022-08-20T20:21:23;5.75;;;1.60;;
23565;SDS011;22140;48.988;8.544;2022-08-20T20:26:29;6.33;;;1.57;;
23565;SDS011;22140;48.988;8.544;2022-08-20T20:31:31;8.47;;;1.90;;
23565;SDS011;22140;48.988;8.544;2022-08-20T20:36:37;5.95;;;1.73;;
23565;SDS011;22140;48.988;8.544;2022-08-20T20:41:49;5.47;;;1.60;;
23565;SDS011;22140;48.988;8.544;2022-08-20T20:46:58;8.50;;;1.60;;
23565;SDS011;22140;48.988;8.544;2022-08-20T20:52:02;7.93;;;1.70;;
23565;SDS011;22140;48.988;8.544;2022-08-20T20:57:04;8.85;;;2.13;;
23565;SDS011;22140;48.988;8.544;2022-08-20T21:02:06;7.67;;;2.37;;
23565;SDS011;22140;48.988;8.544;2022-08-20T21:07:08;7.07;;;1.95;;
23565;SDS011;22140;48.988;8.544;2022-08-20T21:12:10;7.63;;;1.80;;
23565;SDS011;22140;48.988;8.544;2022-08-20T21:17:13;6.43;;;1.73;;
23565;SDS011;22140;48.988;8.544;2022-08-20T21:22:15;5.63;;;1.57;;
23565;SDS011;22140;48.988;8.544;2022-08-20T21:27:18;7.30;;;1.88;;
23565;SDS011;22140;48.988;8.544;2022-08-20T21:32:20;7.85;;;1.90;;
23565;SDS011;22140;48.988;8.544;2022-08-20T21:37:22;6.40;;;1.97;;
23565;SDS011;22140;48.988;8.544;2022-08-20T21:42:23;5.72;;;1.67;;
23565;SDS011;22140;48.988;8.544;2022-08-20T21:47:29;6.40;;;2.03;;
23565;SDS011;22140;48.988;8.544;2022-08-20T21:52:31;5.57;;;1.63;;
23565;SDS011;22140;48.988;8.544;2022-08-20T21:57:35;6.35;;;1.50;;
23565;SDS011;22140;48.988;8.544;2022-08-20T22:02:37;5.28;;;1.60;;
23565;SDS011;22140;48.988;8.544;2022-08-20T22:07:39;8.13;;;1.67;;
23565;SDS011;22140;48.988;8.544;2022-08-20T22:12:40;8.70;;;1.90;;
23565;SDS011;22140;48.988;8.544;2022-08-20T22:17:42;7.47;;;1.90;;
23565;SDS011;22140;48.988;8.544;2022-08-20T22:22:43;6.38;;;1.88;;
23565;SDS011;22140;48.988;8.544;2022-08-20T22:27:46;8.30;;;2.07;;
23565;SDS011;22140;48.988;8.544;2022-08-20T22:32:47;8.05;;;1.90;;
23565;SDS011;22140;48.988;8.544;2022-08-20T22:37:52;5.78;;;1.80;;
23565;SDS011;22140;48.988;8.544;2022-08-20T22:42:54;8.10;;;1.90;;
23565;SDS011;22140;48.988;8.544;2022-08-20T22:47:55;6.40;;;1.77;;
23565;SDS011;22140;48.988;8.544;2022-08-20T22:52:56;5.70;;;1.65;;
23565;SDS011;22140;48.988;8.544;2022-08-20T22:57:58;6.57;;;1.60;;
23565;SDS011;22140;48.988;8.544;2022-08-20T23:03:01;5.80;;;1.50;;
23565;SDS011;22140;48.988;8.544;2022-08-20T23:08:03;5.82;;;1.95;;
23565;SDS011;22140;48.988;8.544;2022-08-20T23:13:05;5.70;;;1.77;;
23565;SDS011;22140;48.988;8.544;2022-08-20T23:18:09;7.13;;;1.73;;
23565;SDS011;22140;48.988;8.544;2022-08-20T23:23:10;5.35;;;1.58;;
23565;SDS011;22140;48.988;8.544;2022-08-20T23:28:12;5.72;;;1.85;;
23565;SDS011;22140;48.988;8.544;2022-08-20T23:33:13;5.90;;;2.00;;
23565;SDS011;22140;48.988;8.544;2022-08-20T23:38:14;6.45;;;1.70;;
23565;SDS011;22140;48.988;8.544;2022-08-20T23:43:16;6.82;;;2.20;;
23565;SDS011;22140;48.988;8.544;2022-08-20T23:48:18;7.73;;;1.93;;
23565;SDS011;22140;48.988;8.544;2022-08-20T23:53:20;7.77;;;1.90;;
23565;SDS011;22140;48.988;8.544;2022-08-20T23:58:21;7.07;;;1.70;;
